createdAt,value
2023-03-07T00:00:18.201Z,94.20
2023-03-07T00:02:44.970Z,94.30
2023-03-07T00:05:11.732Z,94.30
2023-03-07T00:07:38.483Z,94.50
2023-03-07T00:10:06.127Z,94.60
2023-03-07T00:12:32.891Z,94.20
2023-03-07T00:14:59.607Z,93.90
2023-03-07T00:17:27.648Z,93.70
2023-03-07T00:19:54.385Z,93.40
2023-03-07T00:22:21.105Z,93.40
2023-03-07T00:24:47.999Z,93.20
2023-03-07T00:27:14.896Z,93.10
2023-03-07T00:29:41.708Z,93.00
2023-03-07T00:32:08.525Z,92.90
2023-03-07T00:34:36.596Z,92.90
2023-03-07T00:37:04.534Z,93.00
2023-03-07T00:39:31.260Z,93.30
2023-03-07T00:41:57.981Z,93.40
2023-03-07T00:44:24.823Z,93.50
2023-03-07T00:46:51.668Z,93.50
2023-03-07T00:49:18.637Z,93.40
2023-03-07T00:51:46.788Z,93.30
2023-03-07T00:54:13.698Z,93.40
2023-03-07T00:56:40.758Z,93.20
2023-03-07T00:59:07.951Z,93.10
2023-03-07T01:01:35.279Z,93.40
2023-03-07T01:04:02.072Z,93.20
2023-03-07T01:06:30.763Z,93.10
2023-03-07T01:09:00.838Z,93.10
2023-03-07T01:11:29.110Z,93.00
2023-03-07T01:13:56.661Z,93.20
2023-03-07T01:16:24.935Z,93.10
2023-03-07T01:18:54.960Z,93.40
2023-03-07T01:21:23.478Z,93.30
2023-03-07T01:23:50.540Z,93.00
2023-03-07T01:26:21.358Z,93.00
2023-03-07T01:28:48.100Z,92.90
2023-03-07T01:31:14.852Z,93.00
2023-03-07T01:33:41.597Z,92.90
2023-03-07T01:36:16.684Z,92.90
2023-03-07T01:38:43.410Z,93.00
2023-03-07T01:41:10.141Z,92.90
2023-03-07T01:43:39.158Z,93.10
2023-03-07T01:46:41.596Z,92.70
2023-03-07T01:49:13.881Z,92.60
2023-03-07T01:51:43.860Z,92.50
2023-03-07T01:54:13.471Z,92.60
2023-03-07T01:56:40.644Z,92.50
2023-03-07T01:59:09.040Z,92.50
2023-03-07T02:01:36.884Z,92.60
2023-03-07T02:04:09.599Z,92.70
2023-03-07T02:06:38.567Z,92.70
2023-03-07T02:09:08.801Z,92.80
2023-03-07T02:11:35.676Z,92.90
2023-03-07T02:14:02.381Z,93.00
2023-03-07T02:16:31.455Z,93.00
2023-03-07T02:18:58.205Z,93.10
2023-03-07T02:21:33.378Z,93.10
2023-03-07T02:24:07.957Z,93.10
2023-03-07T02:26:46.172Z,93.10
2023-03-07T02:29:14.112Z,93.00
2023-03-07T02:31:41.549Z,93.00
2023-03-07T02:34:18.857Z,92.90
2023-03-07T02:36:46.486Z,92.80
2023-03-07T02:39:13.470Z,92.90
2023-03-07T02:41:40.596Z,92.90
2023-03-07T02:44:08.617Z,92.80
2023-03-07T02:46:35.395Z,92.90
2023-03-07T02:49:02.116Z,92.90
2023-03-07T02:51:28.820Z,92.90
2023-03-07T02:53:55.507Z,92.80
2023-03-07T02:56:22.196Z,92.90
2023-03-07T02:58:48.963Z,92.80
2023-03-07T03:01:17.069Z,92.80
2023-03-07T03:03:43.773Z,92.70
2023-03-07T03:06:10.606Z,92.60
2023-03-07T03:08:37.337Z,92.60
2023-03-07T03:11:04.214Z,92.60
2023-03-07T03:13:30.944Z,92.60
2023-03-07T03:15:58.368Z,92.60
2023-03-07T03:18:28.530Z,92.50
2023-03-07T03:20:55.248Z,92.60
2023-03-07T03:23:22.019Z,92.60
2023-03-07T03:25:57.838Z,92.50
2023-03-07T03:28:24.660Z,92.40
2023-03-07T03:30:57.986Z,92.30
2023-03-07T03:33:27.181Z,92.20
2023-03-07T03:35:53.960Z,92.30
2023-03-07T03:38:20.712Z,92.20
2023-03-07T03:40:47.449Z,92.10
2023-03-07T03:43:14.522Z,92.20
2023-03-07T03:45:41.310Z,92.10
2023-03-07T03:48:08.264Z,92.00
2023-03-07T03:50:36.490Z,92.00
2023-03-07T03:53:03.201Z,92.00
2023-03-07T03:55:30.052Z,91.90
2023-03-07T03:57:56.768Z,91.90
2023-03-07T04:00:23.469Z,91.90
2023-03-07T04:02:50.364Z,91.90
2023-03-07T04:05:17.214Z,91.90
2023-03-07T04:07:45.375Z,91.80
2023-03-07T04:10:12.357Z,91.80
2023-03-07T04:12:39.148Z,91.80
2023-03-07T04:15:07.522Z,91.80
2023-03-07T04:17:34.812Z,91.80
2023-03-07T04:20:01.539Z,91.80
2023-03-07T04:22:28.403Z,91.70
2023-03-07T04:24:56.460Z,91.70
2023-03-07T04:27:23.244Z,91.60
2023-03-07T04:29:49.944Z,91.60
2023-03-07T04:32:16.893Z,91.60
2023-03-07T04:34:43.623Z,91.50
2023-03-07T04:37:10.342Z,91.50
2023-03-07T04:39:37.053Z,91.40
2023-03-07T04:42:05.402Z,91.50
2023-03-07T04:44:32.180Z,91.40
2023-03-07T04:46:58.890Z,91.40
2023-03-07T04:49:25.675Z,91.40
2023-03-07T04:51:52.419Z,91.30
2023-03-07T04:54:19.162Z,91.40
2023-03-07T04:56:45.931Z,91.40
2023-03-07T04:59:14.004Z,91.40
2023-03-07T05:01:40.734Z,91.40
2023-03-07T05:04:07.522Z,91.40
2023-03-07T05:06:34.284Z,91.30
2023-03-07T05:09:01.005Z,91.30
2023-03-07T05:11:27.741Z,91.30
2023-03-07T05:13:54.423Z,91.40
2023-03-07T05:16:22.532Z,91.30
2023-03-07T05:18:49.240Z,91.20
2023-03-07T05:21:15.976Z,91.30
2023-03-07T05:23:42.707Z,91.30
2023-03-07T05:26:09.538Z,91.20
2023-03-07T05:28:36.356Z,91.20
2023-03-07T05:31:03.187Z,91.20
2023-03-07T05:33:31.282Z,91.20
2023-03-07T05:35:59.814Z,91.10
2023-03-07T05:38:26.565Z,91.10
2023-03-07T05:40:53.276Z,91.10
2023-03-07T05:43:20.009Z,91.00
2023-03-07T05:45:46.717Z,91.00
2023-03-07T05:48:14.268Z,91.00
2023-03-07T05:50:42.382Z,91.00
2023-03-07T05:53:09.154Z,90.90
2023-03-07T05:55:35.869Z,90.90
2023-03-07T05:58:02.830Z,90.90
2023-03-07T06:00:29.774Z,90.80
2023-03-07T06:02:56.779Z,90.80
2023-03-07T06:05:25.332Z,90.70
2023-03-07T06:07:53.614Z,90.70
2023-03-07T06:10:20.434Z,90.70
2023-03-07T06:12:49.703Z,90.60
2023-03-07T06:15:16.607Z,90.50
2023-03-07T06:17:43.839Z,90.50
2023-03-07T06:20:11.920Z,90.50
2023-03-07T06:22:38.969Z,90.50
2023-03-07T06:25:09.418Z,90.50
2023-03-07T06:27:37.194Z,90.40
2023-03-07T06:30:06.083Z,90.40
2023-03-07T06:32:33.136Z,90.40
2023-03-07T06:34:59.956Z,90.30
2023-03-07T06:37:26.697Z,90.40
2023-03-07T06:39:54.055Z,90.30
2023-03-07T06:42:22.138Z,90.30
2023-03-07T06:44:48.857Z,90.20
2023-03-07T06:47:15.637Z,90.20
2023-03-07T06:49:42.363Z,90.10
2023-03-07T06:52:09.078Z,90.10
2023-03-07T06:54:35.800Z,90.10
2023-03-07T06:57:02.536Z,90.00
2023-03-07T06:59:30.637Z,90.00
2023-03-07T07:01:57.410Z,90.00
2023-03-07T07:04:24.213Z,90.00
2023-03-07T07:06:50.980Z,90.00
2023-03-07T07:09:17.774Z,90.00
2023-03-07T07:11:44.685Z,90.40
2023-03-07T07:14:11.480Z,90.00
2023-03-07T07:16:39.816Z,89.70
2023-03-07T07:19:06.619Z,89.70
2023-03-07T07:21:33.337Z,89.80
2023-03-07T07:24:00.078Z,89.80
2023-03-07T07:26:26.991Z,89.70
2023-03-07T07:28:53.797Z,89.60
2023-03-07T07:31:20.618Z,89.50
2023-03-07T07:33:48.765Z,89.40
2023-03-07T07:36:15.567Z,89.40
2023-03-07T07:38:42.264Z,89.40
2023-03-07T07:41:09.083Z,89.30
2023-03-07T07:43:35.904Z,89.20
2023-03-07T07:46:03.479Z,89.20
2023-03-07T07:48:33.096Z,89.30
2023-03-07T07:51:02.432Z,89.20
2023-03-07T07:53:29.279Z,89.20
2023-03-07T07:55:56.125Z,89.20
2023-03-07T07:58:22.895Z,89.10
2023-03-07T08:00:49.632Z,89.00
2023-03-07T08:03:16.372Z,89.00
2023-03-07T08:05:49.217Z,89.00
2023-03-07T08:08:18.236Z,89.00
2023-03-07T08:10:46.888Z,88.90
2023-03-07T08:13:14.378Z,89.10
2023-03-07T08:15:41.769Z,88.90
2023-03-07T08:18:08.724Z,88.90
2023-03-07T08:20:36.692Z,88.90
2023-03-07T08:23:03.852Z,89.00
2023-03-07T08:25:31.899Z,89.00
2023-03-07T08:27:58.796Z,89.10
2023-03-07T08:30:27.645Z,89.20
2023-03-07T08:32:55.410Z,89.30
2023-03-07T08:35:23.639Z,89.30
2023-03-07T08:37:54.252Z,89.40
2023-03-07T08:40:21.685Z,89.40
2023-03-07T08:42:49.739Z,89.50
2023-03-07T08:45:16.716Z,89.60
2023-03-07T08:47:43.517Z,89.70
2023-03-07T08:50:11.349Z,89.80
2023-03-07T08:52:38.093Z,89.90
2023-03-07T08:55:05.651Z,90.00
2023-03-07T08:57:32.556Z,90.00
2023-03-07T09:00:00.604Z,90.00
2023-03-07T09:02:27.310Z,90.10
2023-03-07T09:04:54.280Z,90.10
2023-03-07T09:07:21.019Z,90.10
2023-03-07T09:09:47.714Z,90.10
2023-03-07T09:12:14.986Z,90.10
2023-03-07T09:14:41.895Z,90.10
2023-03-07T09:17:09.986Z,90.10
2023-03-07T09:19:36.710Z,90.10
2023-03-07T09:22:03.534Z,90.20
2023-03-07T09:24:30.362Z,90.20
2023-03-07T09:26:57.192Z,90.30
2023-03-07T09:29:24.060Z,90.30
2023-03-07T09:31:50.857Z,90.30
2023-03-07T09:34:18.972Z,90.30
2023-03-07T09:36:45.745Z,90.40
2023-03-07T09:39:12.495Z,90.40
2023-03-07T09:41:53.753Z,90.40
2023-03-07T09:44:29.925Z,90.40
2023-03-07T09:47:11.676Z,90.40
2023-03-07T09:49:45.035Z,90.40
2023-03-07T09:52:14.710Z,90.80
2023-03-07T09:54:45.450Z,90.60
2023-03-07T09:57:17.804Z,90.60
2023-03-07T09:59:47.264Z,90.60
2023-03-07T10:02:18.448Z,90.30
2023-03-07T10:04:52.527Z,90.30
2023-03-07T10:07:20.786Z,90.10
2023-03-07T10:09:55.406Z,90.00
2023-03-07T10:12:48.386Z,90.00
2023-03-07T10:15:23.567Z,90.10
2023-03-07T10:18:10.542Z,90.00
2023-03-07T10:20:45.856Z,90.00
2023-03-07T10:23:29.692Z,89.90
2023-03-07T10:26:02.808Z,89.80
2023-03-07T10:28:31.810Z,89.50
2023-03-07T10:31:02.322Z,89.30
2023-03-07T10:33:30.220Z,89.10
2023-03-07T10:36:03.098Z,89.30
2023-03-07T10:38:35.285Z,89.20
2023-03-07T10:41:06.795Z,89.10
2023-03-07T10:43:34.738Z,89.10
2023-03-07T10:46:23.928Z,89.30
2023-03-07T10:48:54.639Z,88.90
2023-03-07T10:51:38.471Z,89.10
2023-03-07T10:54:10.625Z,88.90
2023-03-07T10:56:37.480Z,88.90
2023-03-07T10:59:05.880Z,89.00
2023-03-07T11:01:33.727Z,89.10
2023-03-07T11:04:01.822Z,88.60
2023-03-07T11:06:36.509Z,88.40
2023-03-07T11:09:17.204Z,88.10
2023-03-07T11:11:49.116Z,88.00
2023-03-07T11:14:18.467Z,87.40
2023-03-07T11:16:49.722Z,87.40
2023-03-07T11:19:32.745Z,87.50
2023-03-07T11:22:02.552Z,87.40
2023-03-07T11:24:31.253Z,87.40
2023-03-07T11:26:59.749Z,87.70
2023-03-07T11:29:26.716Z,87.90
2023-03-07T11:32:04.649Z,87.80
2023-03-07T11:34:39.640Z,87.30
2023-03-07T11:37:17.005Z,87.30
2023-03-07T11:39:49.343Z,87.50
2023-03-07T11:42:18.998Z,87.30
2023-03-07T11:44:52.081Z,87.40
2023-03-07T11:47:29.435Z,87.70
2023-03-07T11:50:08.377Z,87.80
2023-03-07T11:53:02.156Z,87.90
2023-03-07T11:55:36.202Z,87.90
2023-03-07T11:58:08.997Z,87.90
2023-03-07T12:00:48.874Z,87.90
2023-03-07T12:03:54.930Z,87.80
2023-03-07T12:06:28.454Z,87.90
2023-03-07T12:09:11.993Z,88.10
2023-03-07T12:11:52.847Z,88.00
2023-03-07T12:14:31.193Z,88.20
2023-03-07T12:17:11.450Z,88.60
2023-03-07T12:19:57.186Z,88.50
2023-03-07T12:22:27.601Z,88.60
2023-03-07T12:25:16.868Z,88.50
2023-03-07T12:27:47.972Z,88.40
2023-03-07T12:30:18.593Z,88.50
2023-03-07T12:32:46.400Z,88.60
2023-03-07T12:35:22.381Z,88.90
2023-03-07T12:37:53.712Z,88.60
2023-03-07T12:40:25.793Z,88.40
2023-03-07T12:42:58.340Z,88.10
2023-03-07T12:45:27.564Z,88.00
2023-03-07T12:48:04.378Z,88.10
2023-03-07T12:50:37.672Z,88.20
2023-03-07T12:53:10.438Z,88.10
2023-03-07T12:55:42.805Z,88.20
2023-03-07T12:58:15.283Z,88.00
2023-03-07T13:00:47.892Z,88.00
2023-03-07T13:03:23.313Z,88.20
2023-03-07T13:05:50.793Z,88.20
2023-03-07T13:08:23.035Z,88.40
2023-03-07T13:10:51.419Z,88.30
2023-03-07T13:13:55.640Z,88.40
2023-03-07T13:16:37.557Z,89.20
2023-03-07T13:19:41.960Z,88.30
2023-03-07T13:22:42.130Z,88.40
2023-03-07T13:25:56.600Z,88.70
2023-03-07T13:28:40.070Z,88.70
2023-03-07T13:31:39.640Z,88.80
2023-03-07T13:34:48.248Z,88.70
2023-03-07T13:37:49.073Z,88.90
2023-03-07T13:40:47.447Z,89.00
2023-03-07T13:43:56.926Z,89.10
2023-03-07T13:46:52.004Z,89.20
2023-03-07T13:49:42.037Z,89.20
2023-03-07T13:52:30.440Z,89.30
2023-03-07T13:54:59.344Z,89.30
2023-03-07T13:57:33.749Z,89.40
2023-03-07T14:00:02.445Z,89.40
2023-03-07T14:02:29.351Z,89.50
2023-03-07T14:04:56.163Z,89.60
2023-03-07T14:07:26.033Z,89.70
2023-03-07T14:09:56.300Z,89.90
2023-03-07T14:12:35.558Z,89.90
2023-03-07T14:15:20.437Z,89.90
2023-03-07T14:18:02.432Z,90.00
2023-03-07T14:20:43.021Z,90.00
2023-03-07T14:23:20.719Z,90.00
2023-03-07T14:25:52.354Z,90.00
2023-03-07T14:28:20.821Z,90.10
2023-03-07T14:30:55.833Z,90.10
2023-03-07T14:33:30.082Z,90.10
2023-03-07T14:35:57.327Z,90.20
2023-03-07T14:38:26.271Z,90.20
2023-03-07T14:41:17.310Z,90.30
2023-03-07T14:43:54.297Z,90.30
2023-03-07T14:46:30.018Z,90.30
2023-03-07T14:49:11.846Z,90.30
2023-03-07T14:51:41.775Z,90.30
2023-03-07T14:54:15.568Z,90.30
2023-03-07T14:56:42.645Z,90.30
2023-03-07T14:59:22.577Z,90.50
2023-03-07T15:01:56.963Z,90.40
2023-03-07T15:04:25.600Z,90.30
2023-03-07T15:06:57.258Z,90.40
2023-03-07T15:09:24.432Z,90.50
2023-03-07T15:11:56.424Z,90.50
2023-03-07T15:14:34.921Z,90.50
2023-03-07T15:17:07.330Z,90.50
2023-03-07T15:19:38.655Z,90.50
2023-03-07T15:22:15.855Z,90.50
2023-03-07T15:24:44.957Z,90.50
2023-03-07T15:27:14.946Z,90.40
2023-03-07T15:29:46.060Z,90.40
2023-03-07T15:32:30.604Z,90.50
2023-03-07T15:35:00.471Z,90.40
2023-03-07T15:37:28.937Z,90.40
2023-03-07T15:39:57.271Z,90.40
2023-03-07T15:42:24.028Z,90.20
2023-03-07T15:44:55.061Z,90.20
2023-03-07T15:47:23.872Z,90.10
2023-03-07T15:49:54.251Z,90.30
2023-03-07T15:52:26.476Z,90.30
2023-03-07T15:54:55.948Z,90.30
2023-03-07T15:57:25.846Z,90.40
2023-03-07T15:59:56.854Z,90.30
2023-03-07T16:02:46.103Z,90.40
2023-03-07T16:05:35.592Z,89.90
2023-03-07T16:08:02.355Z,89.70
2023-03-07T16:10:31.304Z,89.40
2023-03-07T16:13:00.214Z,90.00
2023-03-07T16:15:27.276Z,89.50
2023-03-07T16:17:55.261Z,89.50
2023-03-07T16:20:24.102Z,89.40
2023-03-07T16:22:52.670Z,89.40
2023-03-07T16:25:20.248Z,89.80
2023-03-07T16:27:51.373Z,89.70
2023-03-07T16:30:20.865Z,89.50
2023-03-07T16:32:47.681Z,89.80
2023-03-07T16:35:16.325Z,89.70
2023-03-07T16:37:43.168Z,89.70
2023-03-07T16:40:13.157Z,89.70
2023-03-07T16:42:42.592Z,90.00
2023-03-07T16:45:17.573Z,89.90
2023-03-07T16:47:44.488Z,90.00
2023-03-07T16:50:14.470Z,89.80
2023-03-07T16:52:42.654Z,88.40
2023-03-07T16:55:14.294Z,89.30
2023-03-07T16:57:42.370Z,88.80
2023-03-07T17:00:15.266Z,87.70
2023-03-07T17:02:42.153Z,87.70
2023-03-07T17:05:15.168Z,86.00
2023-03-07T17:07:42.007Z,84.70
2023-03-07T17:10:10.106Z,83.90
2023-03-07T17:12:38.310Z,83.00
2023-03-07T17:15:07.610Z,82.10
2023-03-07T17:17:36.395Z,80.90
2023-03-07T17:20:04.789Z,80.50
2023-03-07T17:22:31.584Z,80.30
2023-03-07T17:24:58.290Z,80.00
2023-03-07T17:27:25.160Z,79.60
2023-03-07T17:29:54.767Z,79.60
2023-03-07T17:32:21.687Z,79.50
2023-03-07T17:34:48.654Z,79.60
2023-03-07T17:37:15.544Z,79.70
2023-03-07T17:39:42.570Z,79.00
2023-03-07T17:42:09.441Z,78.80
2023-03-07T17:44:36.243Z,79.00
2023-03-07T17:47:04.400Z,78.70
2023-03-07T17:49:35.841Z,78.70
2023-03-07T17:52:03.324Z,78.70
2023-03-07T17:54:31.039Z,78.40
2023-03-07T17:56:57.808Z,78.40
2023-03-07T17:59:24.637Z,78.20
2023-03-07T18:01:51.443Z,78.80
2023-03-07T18:04:19.520Z,78.30
2023-03-07T18:06:46.270Z,78.70
2023-03-07T18:09:12.991Z,78.40
2023-03-07T18:11:39.729Z,78.40
2023-03-07T18:14:06.467Z,78.60
2023-03-07T18:16:33.232Z,78.40
2023-03-07T18:19:02.263Z,78.30
2023-03-07T18:21:31.707Z,78.10
2023-03-07T18:23:58.434Z,78.40
2023-03-07T18:26:25.544Z,78.50
2023-03-07T18:28:52.591Z,78.00
2023-03-07T18:31:21.503Z,78.30
2023-03-07T18:33:48.913Z,78.30
2023-03-07T18:36:16.528Z,78.20
2023-03-07T18:38:44.625Z,78.50
2023-03-07T18:41:13.364Z,78.50
2023-03-07T18:43:40.848Z,78.60
2023-03-07T18:46:09.989Z,78.10
2023-03-07T18:48:36.972Z,78.20
2023-03-07T18:51:05.871Z,78.60
2023-03-07T18:53:33.979Z,79.00
2023-03-07T18:56:03.879Z,78.90
2023-03-07T18:58:30.667Z,79.10
2023-03-07T19:00:57.496Z,78.70
2023-03-07T19:03:24.357Z,78.30
2023-03-07T19:05:51.068Z,78.60
2023-03-07T19:08:17.778Z,78.40
2023-03-07T19:10:44.574Z,78.60
2023-03-07T19:13:12.624Z,78.50
2023-03-07T19:15:39.338Z,78.30
2023-03-07T19:18:06.200Z,78.40
2023-03-07T19:20:32.916Z,78.70
2023-03-07T19:22:59.622Z,78.00
2023-03-07T19:25:26.389Z,78.60
2023-03-07T19:27:53.128Z,78.70
2023-03-07T19:30:21.494Z,78.40
2023-03-07T19:32:48.226Z,78.20
2023-03-07T19:35:15.103Z,78.00
2023-03-07T19:37:41.829Z,78.10
2023-03-07T19:40:09.882Z,78.70
2023-03-07T19:42:36.726Z,78.90
2023-03-07T19:45:04.468Z,79.00
2023-03-07T19:47:32.598Z,79.10
2023-03-07T19:49:59.463Z,79.00
2023-03-07T19:52:26.343Z,79.20
2023-03-07T19:54:53.421Z,78.90
2023-03-07T19:57:20.227Z,79.20
2023-03-07T19:59:51.407Z,79.20
2023-03-07T20:02:18.335Z,79.20
2023-03-07T20:04:46.402Z,79.80
2023-03-07T20:07:13.251Z,80.00
2023-03-07T20:09:39.978Z,80.30
2023-03-07T20:12:07.422Z,80.20
2023-03-07T20:14:34.256Z,80.10
2023-03-07T20:17:01.095Z,80.30
2023-03-07T20:19:27.887Z,80.60
2023-03-07T20:21:55.920Z,80.30
2023-03-07T20:24:22.636Z,81.00
2023-03-07T20:26:49.489Z,81.30
2023-03-07T20:29:16.238Z,81.40
2023-03-07T20:31:43.127Z,81.50
2023-03-07T20:34:11.216Z,81.80
2023-03-07T20:36:38.601Z,81.70
2023-03-07T20:39:08.650Z,82.10
2023-03-07T20:41:35.981Z,82.30
2023-03-07T20:44:04.246Z,82.40
2023-03-07T20:46:32.298Z,82.30
2023-03-07T20:49:00.563Z,82.40
2023-03-07T20:51:29.187Z,82.40
2023-03-07T20:53:57.408Z,82.40
2023-03-07T20:56:26.852Z,82.30
2023-03-07T20:58:54.154Z,82.30
2023-03-07T21:01:21.772Z,82.20
2023-03-07T21:03:48.870Z,82.20
2023-03-07T21:06:16.503Z,81.70
2023-03-07T21:08:43.544Z,81.60
2023-03-07T21:11:12.601Z,81.70
2023-03-07T21:13:42.546Z,81.40
2023-03-07T21:16:11.638Z,81.20
2023-03-07T21:18:38.725Z,81.40
2023-03-07T21:21:08.189Z,81.60
2023-03-07T21:23:35.345Z,81.60
2023-03-07T21:26:03.216Z,81.50
2023-03-07T21:28:30.021Z,81.40
2023-03-07T21:31:02.672Z,81.60
2023-03-07T21:33:30.100Z,81.70
2023-03-07T21:35:57.046Z,81.50
2023-03-07T21:38:24.311Z,81.50
2023-03-07T21:40:51.134Z,81.00
2023-03-07T21:43:17.918Z,81.00
2023-03-07T21:45:44.728Z,80.70
2023-03-07T21:48:13.264Z,80.50
2023-03-07T21:50:42.450Z,80.30
2023-03-07T21:53:09.319Z,80.30
2023-03-07T21:55:36.743Z,80.20
2023-03-07T21:58:03.764Z,80.00
2023-03-07T22:00:30.766Z,80.00
2023-03-07T22:02:57.572Z,79.90
2023-03-07T22:05:25.717Z,79.90
2023-03-07T22:07:52.429Z,79.60
2023-03-07T22:10:19.260Z,79.50
2023-03-07T22:12:45.989Z,79.40
2023-03-07T22:15:12.815Z,79.30
2023-03-07T22:17:39.528Z,79.20
2023-03-07T22:20:07.249Z,79.10
2023-03-07T22:22:35.418Z,79.00
2023-03-07T22:25:02.170Z,79.00
2023-03-07T22:27:29.079Z,78.90
2023-03-07T22:29:55.800Z,78.90
2023-03-07T22:32:22.518Z,78.90
2023-03-07T22:34:51.097Z,78.80
2023-03-07T22:37:17.971Z,78.80
2023-03-07T22:39:46.152Z,78.80
2023-03-07T22:42:12.904Z,78.80
2023-03-07T22:44:39.830Z,78.70
2023-03-07T22:47:06.622Z,78.60
2023-03-07T22:49:34.166Z,78.60
2023-03-07T22:52:01.059Z,78.60
2023-03-07T22:54:28.096Z,78.50
2023-03-07T22:56:56.165Z,78.40
2023-03-07T22:59:22.897Z,78.40
2023-03-07T23:01:49.608Z,78.20
2023-03-07T23:04:16.367Z,78.30
2023-03-07T23:06:43.196Z,78.20
2023-03-07T23:09:10.610Z,78.20
2023-03-07T23:11:37.322Z,78.10
2023-03-07T23:14:05.389Z,78.00
2023-03-07T23:16:32.875Z,78.00
2023-03-07T23:19:00.410Z,77.80
2023-03-07T23:21:29.214Z,77.80
2023-03-07T23:23:56.270Z,77.80
2023-03-07T23:26:25.070Z,77.60
2023-03-07T23:28:51.979Z,77.60
2023-03-07T23:31:21.999Z,77.60
2023-03-07T23:33:49.205Z,77.40
2023-03-07T23:36:16.720Z,77.40
2023-03-07T23:38:44.631Z,77.40
2023-03-07T23:41:11.463Z,77.40
2023-03-07T23:43:38.383Z,77.40
2023-03-07T23:46:05.611Z,77.30
2023-03-07T23:48:33.703Z,77.30
2023-03-07T23:51:00.525Z,77.30
2023-03-07T23:53:27.285Z,77.30
2023-03-07T23:55:54.044Z,77.30
2023-03-07T23:58:20.802Z,77.30
